Meteo Giornale » Osservazioni meteo India » Bombay-Santacruz
ore: 18:30 - Osservazioni Meteo Bombay-Santacruz
Lat. 19° 7' N Lon. 72° 51' E Alt. 8 metri s.l.m.
29 °C
Foschia
Temp. 24 Ore
27 °C
31 °C
Ovest
20.3 Km/h
Dew point 25 °C
Umidità 79 %
Visibilità 4 Km
Il sole sorge alle ore 06:23
Il sole tramonta alle ore 18:53
| Data e Ora | Cielo e Fenomeni | T °C | DP °C | Um. % | Pres. hPa | Vis. km | Vento km/h | |
|---|---|---|---|---|---|---|---|---|
| Oggi h: 18:30 | Foschia | 29 | 25 | 79 | 1009 | 4 | O 20.3 | |
| Oggi h: 18:00 | Foschia | 29 | 25 | 79 | 1009 | 4 | O/NO 18.5 | |
| Oggi h: 17:30 | Foschia | 30 | 25 | 74 | 1008 | 4 | O 24 | |
| Oggi h: 17:00 | Foschia | 30 | 25 | 74 | 1008 | 4 | O 22.2 | |
| Oggi h: 16:30 | Foschia | 30 | 25 | 74 | 1008 | 4 | O 24 | |
| Oggi h: 16:00 | Foschia | 30 | 24 | 70 | 1008 | 4 | O 24 | |
| Oggi h: 15:30 | Foschia | 30 | 26 | 79 | 1008 | 4 | O 25.9 | |
| Oggi h: 15:00 | Foschia | 29 | 26 | 83 | 1008 | 3 | O/NO 20.3 | |
| Oggi h: 14:30 | Pioggia | 29 | 27 | 89 | 1009 | 3 | O 22.2 | |
| Oggi h: 14:00 | Foschia | 31 | 25 | 70 | 1009 | 4 | O 27.8 | |
| Oggi h: 13:30 | Foschia | 31 | 25 | 70 | 1009 | 5 | O 25.9 | |
| Oggi h: 13:00 | Pioggia nelle vicinanze | 31 | 25 | 70 | 1009 | 5 | O 25.9 | |
| Oggi h: 12:30 | Foschia | 31 | 25 | 70 | 1010 | 5 | O 24 | |
| Oggi h: 12:00 | Foschia | 30 | 25 | 74 | 1010 | 5 | O 24 | |
| Oggi h: 11:30 | Foschia | 31 | 25 | 70 | 1010 | 5 | O/SO 22.2 | |
| Oggi h: 11:00 | Foschia | 31 | 25 | 70 | 1010 | 4 | O 24 | |
| Oggi h: 10:30 | Foschia | 30 | 25 | 74 | 1010 | 4 | O 24 | |
| Oggi h: 10:00 | Foschia | 30 | 25 | 74 | 1010 | 4 | O 22.2 | |
| Oggi h: 09:30 | Foschia | 30 | 25 | 74 | 1010 | 4 | O 24 | |
| Oggi h: 09:00 | Foschia | 29 | 25 | 79 | 1009 | 4 | O 22.2 | |
| Oggi h: 08:30 | Foschia | 29 | 25 | 79 | 1009 | 4 | O 18.5 | |
| Oggi h: 08:00 | Foschia | 29 | 25 | 79 | 1009 | 4 | O 20.3 | |
| Oggi h: 07:30 | Foschia | 29 | 25 | 79 | 1009 | 3 | O 20.3 | |
| Oggi h: 07:00 | Pioviggine | 28 | 25 | 83 | 1008 | 3 | O 16.7 | |
| Oggi h: 06:30 | Foschia | 28 | 24 | 78 | 1008 | 3 | O 20.3 | |
| Oggi h: 06:00 | Foschia | 28 | 24 | 78 | 1008 | 3 | O 18.5 | |
| Oggi h: 05:30 | Foschia | 28 | 25 | 83 | 1008 | 3 | O 20.3 | |
| Oggi h: 05:00 | Foschia | 28 | 25 | 83 | 1007 | 3 | O 18.5 | |
| Oggi h: 04:30 | Foschia | 28 | 25 | 83 | 1007 | 3 | O 16.7 | |
| Oggi h: 04:00 | Foschia | 28 | 24 | 78 | 1007 | 3 | O 20.3 | |
| Oggi h: 03:30 | Foschia | 28 | 25 | 83 | 1007 | 3 | O 18.5 | |
| Oggi h: 03:00 | Foschia | 28 | 24 | 78 | 1007 | 3 | O/SO 22.2 | |
| Oggi h: 02:30 | Foschia | 28 | 25 | 83 | 1008 | 3 | O 20.3 | |
| Oggi h: 02:00 | Foschia | 28 | 25 | 83 | 1008 | 3 | O 18.5 | |
| Oggi h: 01:30 | Foschia | 28 | 25 | 83 | 1008 | 3 | O/SO 18.5 | |
| Oggi h: 01:00 | Foschia | 28 | 25 | 83 | 1009 | 3 | O/SO 16.7 | |
| Oggi h: 00:30 | Foschia | 28 | 25 | 83 | 1009 | 3 | O/SO 14.8 | |
| Oggi h: 00:00 | Foschia | 28 | 25 | 83 | 1009 | 3 | O/SO 16.7 | |
| Ieri h: 23:30 | Foschia | 28 | 25 | 83 | 1009 | 3 | O 18.5 | |
| Ieri h: 23:00 | Pioviggine | 27 | 25 | 88 | 1010 | 3 | O/NO 13 | |
| Ieri h: 22:30 | Foschia | 29 | 25 | 79 | 1010 | 4 | O 16.7 | |
| Ieri h: 22:00 | Foschia | 29 | 24 | 74 | 1010 | 4 | O 18.5 | |
| Ieri h: 21:30 | Foschia | 29 | 24 | 74 | 1010 | 4 | O 18.5 | |
| Ieri h: 21:00 | Foschia | 29 | 25 | 79 | 1009 | 4 | O 16.7 | |
| Ieri h: 20:30 | Foschia | 29 | 25 | 79 | 1009 | 4 | O 16.7 | |
| Ieri h: 20:00 | Foschia | 29 | 25 | 79 | 1009 | 4 | O 16.7 | |
| Ieri h: 19:30 | Foschia | 29 | 24 | 74 | 1009 | 4 | O 20.3 | |



